sensor_id;sensor_type;location;lat;lon;timestamp;temperature;humidity
32446;DHT22;18899;50.748;7.102;2023-12-14T00:00:41;9.20;99.90
32446;DHT22;18899;50.748;7.102;2023-12-14T00:03:07;9.30;99.90
32446;DHT22;18899;50.748;7.102;2023-12-14T00:05:32;9.30;99.90
32446;DHT22;18899;50.748;7.102;2023-12-14T00:07:58;9.30;99.90
32446;DHT22;18899;50.748;7.102;2023-12-14T00:10:23;9.20;99.90
32446;DHT22;18899;50.748;7.102;2023-12-14T00:12:49;9.20;99.90
32446;DHT22;18899;50.748;7.102;2023-12-14T00:15:16;9.20;99.90
32446;DHT22;18899;50.748;7.102;2023-12-14T00:17:41;9.20;99.90
32446;DHT22;18899;50.748;7.102;2023-12-14T00:20:08;9.20;99.90
32446;DHT22;18899;50.748;7.102;2023-12-14T00:22:33;9.10;99.90
32446;DHT22;18899;50.748;7.102;2023-12-14T00:25:00;9.00;99.90
32446;DHT22;18899;50.748;7.102;2023-12-14T00:27:25;8.90;99.90
32446;DHT22;18899;50.748;7.102;2023-12-14T00:29:51;8.90;99.90
32446;DHT22;18899;50.748;7.102;2023-12-14T00:32:16;8.90;99.90
32446;DHT22;18899;50.748;7.102;2023-12-14T00:34:42;8.80;99.90
32446;DHT22;18899;50.748;7.102;2023-12-14T00:37:07;8.80;99.90
32446;DHT22;18899;50.748;7.102;2023-12-14T00:39:33;8.80;99.90
32446;DHT22;18899;50.748;7.102;2023-12-14T00:41:58;8.80;99.90
32446;DHT22;18899;50.748;7.102;2023-12-14T00:44:24;8.70;99.90
32446;DHT22;18899;50.748;7.102;2023-12-14T00:46:49;8.70;99.90
32446;DHT22;18899;50.748;7.102;2023-12-14T00:49:15;8.60;99.90
32446;DHT22;18899;50.748;7.102;2023-12-14T00:51:43;8.60;99.90
32446;DHT22;18899;50.748;7.102;2023-12-14T00:54:08;8.60;99.90
32446;DHT22;18899;50.748;7.102;2023-12-14T00:56:34;8.60;99.90
32446;DHT22;18899;50.748;7.102;2023-12-14T00:58:59;8.60;99.90
32446;DHT22;18899;50.748;7.102;2023-12-14T01:01:25;8.60;99.90
32446;DHT22;18899;50.748;7.102;2023-12-14T01:03:50;8.60;99.90
32446;DHT22;18899;50.748;7.102;2023-12-14T01:06:16;8.70;99.90
32446;DHT22;18899;50.748;7.102;2023-12-14T01:08:41;8.70;99.90
32446;DHT22;18899;50.748;7.102;2023-12-14T01:11:07;8.70;99.90
32446;DHT22;18899;50.748;7.102;2023-12-14T01:13:33;8.70;99.90
32446;DHT22;18899;50.748;7.102;2023-12-14T01:15:58;8.70;99.90
32446;DHT22;18899;50.748;7.102;2023-12-14T01:18:24;8.70;99.90
32446;DHT22;18899;50.748;7.102;2023-12-14T01:20:50;8.70;99.90
32446;DHT22;18899;50.748;7.102;2023-12-14T01:23:15;8.70;99.90
32446;DHT22;18899;50.748;7.102;2023-12-14T01:25:41;8.80;99.90
32446;DHT22;18899;50.748;7.102;2023-12-14T01:28:06;8.90;99.90
32446;DHT22;18899;50.748;7.102;2023-12-14T01:30:33;9.00;99.90
32446;DHT22;18899;50.748;7.102;2023-12-14T01:32:59;9.00;99.90
32446;DHT22;18899;50.748;7.102;2023-12-14T01:35:24;9.10;99.90
32446;DHT22;18899;50.748;7.102;2023-12-14T01:37:50;9.10;99.90
32446;DHT22;18899;50.748;7.102;2023-12-14T01:40:18;9.10;99.90
32446;DHT22;18899;50.748;7.102;2023-12-14T01:42:45;9.10;99.90
32446;DHT22;18899;50.748;7.102;2023-12-14T01:45:10;9.00;99.90
32446;DHT22;18899;50.748;7.102;2023-12-14T01:47:36;9.00;99.90
32446;DHT22;18899;50.748;7.102;2023-12-14T01:50:02;9.00;99.90
32446;DHT22;18899;50.748;7.102;2023-12-14T01:52:27;9.00;99.90
32446;DHT22;18899;50.748;7.102;2023-12-14T01:54:53;9.00;99.90
32446;DHT22;18899;50.748;7.102;2023-12-14T01:57:20;9.10;99.90
32446;DHT22;18899;50.748;7.102;2023-12-14T01:59:46;9.00;99.90
32446;DHT22;18899;50.748;7.102;2023-12-14T02:02:11;9.10;99.90
32446;DHT22;18899;50.748;7.102;2023-12-14T02:04:37;9.10;99.90
32446;DHT22;18899;50.748;7.102;2023-12-14T02:07:03;9.20;99.90
32446;DHT22;18899;50.748;7.102;2023-12-14T02:09:28;9.20;99.90
32446;DHT22;18899;50.748;7.102;2023-12-14T02:11:54;9.20;99.90
32446;DHT22;18899;50.748;7.102;2023-12-14T02:14:21;9.20;99.90
32446;DHT22;18899;50.748;7.102;2023-12-14T02:16:47;9.20;99.90
32446;DHT22;18899;50.748;7.102;2023-12-14T02:19:13;9.20;99.90
32446;DHT22;18899;50.748;7.102;2023-12-14T02:21:38;9.20;99.90
32446;DHT22;18899;50.748;7.102;2023-12-14T02:24:04;9.10;99.90
32446;DHT22;18899;50.748;7.102;2023-12-14T02:26:29;9.20;99.90
32446;DHT22;18899;50.748;7.102;2023-12-14T02:28:55;9.10;99.90
32446;DHT22;18899;50.748;7.102;2023-12-14T02:31:22;9.10;99.90
32446;DHT22;18899;50.748;7.102;2023-12-14T02:33:47;9.10;99.90
32446;DHT22;18899;50.748;7.102;2023-12-14T02:36:13;9.10;99.90
32446;DHT22;18899;50.748;7.102;2023-12-14T02:38:38;9.10;99.90
32446;DHT22;18899;50.748;7.102;2023-12-14T02:41:04;9.20;99.90
32446;DHT22;18899;50.748;7.102;2023-12-14T02:43:29;9.10;99.90
32446;DHT22;18899;50.748;7.102;2023-12-14T02:45:55;9.20;99.90
32446;DHT22;18899;50.748;7.102;2023-12-14T02:48:27;9.10;99.90
32446;DHT22;18899;50.748;7.102;2023-12-14T02:50:52;9.10;99.90
32446;DHT22;18899;50.748;7.102;2023-12-14T02:53:18;9.20;99.90
32446;DHT22;18899;50.748;7.102;2023-12-14T02:55:43;9.20;99.90
32446;DHT22;18899;50.748;7.102;2023-12-14T02:58:09;9.20;99.90
32446;DHT22;18899;50.748;7.102;2023-12-14T03:00:34;9.30;99.90
32446;DHT22;18899;50.748;7.102;2023-12-14T03:03:00;9.30;99.90
32446;DHT22;18899;50.748;7.102;2023-12-14T03:05:25;9.30;99.90
32446;DHT22;18899;50.748;7.102;2023-12-14T03:07:51;9.30;99.90
32446;DHT22;18899;50.748;7.102;2023-12-14T03:10:17;9.30;99.90
32446;DHT22;18899;50.748;7.102;2023-12-14T03:12:42;9.30;99.90
32446;DHT22;18899;50.748;7.102;2023-12-14T03:15:08;9.30;99.90
32446;DHT22;18899;50.748;7.102;2023-12-14T03:17:33;9.40;99.90
32446;DHT22;18899;50.748;7.102;2023-12-14T03:19:59;9.40;99.90
32446;DHT22;18899;50.748;7.102;2023-12-14T03:22:24;9.30;99.90
32446;DHT22;18899;50.748;7.102;2023-12-14T03:24:50;9.40;99.90
32446;DHT22;18899;50.748;7.102;2023-12-14T03:27:16;9.40;99.90
32446;DHT22;18899;50.748;7.102;2023-12-14T03:29:41;9.40;99.90
32446;DHT22;18899;50.748;7.102;2023-12-14T03:32:07;9.40;99.90
32446;DHT22;18899;50.748;7.102;2023-12-14T03:34:32;9.30;99.90
32446;DHT22;18899;50.748;7.102;2023-12-14T03:36:58;9.30;99.90
32446;DHT22;18899;50.748;7.102;2023-12-14T03:39:23;9.10;99.90
32446;DHT22;18899;50.748;7.102;2023-12-14T03:41:49;9.10;99.90
32446;DHT22;18899;50.748;7.102;2023-12-14T03:44:15;9.10;99.90
32446;DHT22;18899;50.748;7.102;2023-12-14T03:46:40;9.10;99.90
32446;DHT22;18899;50.748;7.102;2023-12-14T03:49:06;9.10;99.90
32446;DHT22;18899;50.748;7.102;2023-12-14T03:51:32;9.10;99.90
32446;DHT22;18899;50.748;7.102;2023-12-14T03:53:57;9.20;99.90
32446;DHT22;18899;50.748;7.102;2023-12-14T03:56:23;9.20;99.90
32446;DHT22;18899;50.748;7.102;2023-12-14T03:58:49;9.20;99.90
32446;DHT22;18899;50.748;7.102;2023-12-14T04:01:18;9.30;99.90
32446;DHT22;18899;50.748;7.102;2023-12-14T04:03:44;9.20;99.90
32446;DHT22;18899;50.748;7.102;2023-12-14T04:06:13;9.10;99.90
32446;DHT22;18899;50.748;7.102;2023-12-14T04:08:40;9.00;99.90
32446;DHT22;18899;50.748;7.102;2023-12-14T04:11:05;8.90;99.90
32446;DHT22;18899;50.748;7.102;2023-12-14T04:13:31;8.80;99.90
32446;DHT22;18899;50.748;7.102;2023-12-14T04:15:57;8.80;99.90
32446;DHT22;18899;50.748;7.102;2023-12-14T04:18:23;8.70;99.90
32446;DHT22;18899;50.748;7.102;2023-12-14T04:20:48;8.70;99.90
32446;DHT22;18899;50.748;7.102;2023-12-14T04:23:14;8.60;99.90
32446;DHT22;18899;50.748;7.102;2023-12-14T04:25:39;8.60;99.90
32446;DHT22;18899;50.748;7.102;2023-12-14T04:28:05;8.60;99.90
32446;DHT22;18899;50.748;7.102;2023-12-14T04:30:30;8.50;99.90
32446;DHT22;18899;50.748;7.102;2023-12-14T04:32:56;8.50;99.90
32446;DHT22;18899;50.748;7.102;2023-12-14T04:35:21;8.40;99.90
32446;DHT22;18899;50.748;7.102;2023-12-14T04:37:50;8.50;99.90
32446;DHT22;18899;50.748;7.102;2023-12-14T04:40:15;8.40;99.90
32446;DHT22;18899;50.748;7.102;2023-12-14T04:42:41;8.40;99.90
32446;DHT22;18899;50.748;7.102;2023-12-14T04:45:06;8.40;99.90
32446;DHT22;18899;50.748;7.102;2023-12-14T04:47:34;8.30;99.90
32446;DHT22;18899;50.748;7.102;2023-12-14T04:50:00;8.40;99.90
32446;DHT22;18899;50.748;7.102;2023-12-14T04:52:26;8.30;99.90
32446;DHT22;18899;50.748;7.102;2023-12-14T04:54:51;8.30;99.90
32446;DHT22;18899;50.748;7.102;2023-12-14T04:57:17;8.20;99.90
32446;DHT22;18899;50.748;7.102;2023-12-14T04:59:43;8.30;99.90
32446;DHT22;18899;50.748;7.102;2023-12-14T05:02:09;8.30;99.90
32446;DHT22;18899;50.748;7.102;2023-12-14T05:04:34;8.30;99.90
32446;DHT22;18899;50.748;7.102;2023-12-14T05:07:00;8.40;99.90
32446;DHT22;18899;50.748;7.102;2023-12-14T05:09:25;8.40;99.90
32446;DHT22;18899;50.748;7.102;2023-12-14T05:11:51;8.40;99.90
32446;DHT22;18899;50.748;7.102;2023-12-14T05:14:17;8.40;99.90
32446;DHT22;18899;50.748;7.102;2023-12-14T05:16:43;8.40;99.90
32446;DHT22;18899;50.748;7.102;2023-12-14T05:19:08;8.30;99.90
32446;DHT22;18899;50.748;7.102;2023-12-14T05:21:34;8.30;99.90
32446;DHT22;18899;50.748;7.102;2023-12-14T05:23:59;8.30;99.90
32446;DHT22;18899;50.748;7.102;2023-12-14T05:26:25;8.30;99.90
32446;DHT22;18899;50.748;7.102;2023-12-14T05:28:50;8.30;99.90
32446;DHT22;18899;50.748;7.102;2023-12-14T05:31:16;8.20;99.90
32446;DHT22;18899;50.748;7.102;2023-12-14T05:33:42;8.10;99.90
32446;DHT22;18899;50.748;7.102;2023-12-14T05:36:07;8.10;99.90
32446;DHT22;18899;50.748;7.102;2023-12-14T05:38:39;8.10;99.90
32446;DHT22;18899;50.748;7.102;2023-12-14T05:41:05;8.20;99.90
32446;DHT22;18899;50.748;7.102;2023-12-14T05:43:31;8.10;99.90
32446;DHT22;18899;50.748;7.102;2023-12-14T05:45:56;8.10;99.90
32446;DHT22;18899;50.748;7.102;2023-12-14T05:48:22;8.10;99.90
32446;DHT22;18899;50.748;7.102;2023-12-14T05:50:48;8.10;99.90
32446;DHT22;18899;50.748;7.102;2023-12-14T05:53:13;8.10;99.90
32446;DHT22;18899;50.748;7.102;2023-12-14T05:55:39;8.20;99.90
32446;DHT22;18899;50.748;7.102;2023-12-14T05:58:06;8.20;99.90
32446;DHT22;18899;50.748;7.102;2023-12-14T06:00:32;8.30;99.90
32446;DHT22;18899;50.748;7.102;2023-12-14T06:02:58;8.40;99.90
32446;DHT22;18899;50.748;7.102;2023-12-14T06:05:24;8.40;99.90
32446;DHT22;18899;50.748;7.102;2023-12-14T06:07:49;8.40;99.90
32446;DHT22;18899;50.748;7.102;2023-12-14T06:10:15;8.30;99.90
32446;DHT22;18899;50.748;7.102;2023-12-14T06:12:40;8.30;99.90
32446;DHT22;18899;50.748;7.102;2023-12-14T06:15:07;8.40;99.90
32446;DHT22;18899;50.748;7.102;2023-12-14T06:17:32;8.40;99.90
32446;DHT22;18899;50.748;7.102;2023-12-14T06:19:59;8.50;99.90
32446;DHT22;18899;50.748;7.102;2023-12-14T06:22:25;8.50;99.90
32446;DHT22;18899;50.748;7.102;2023-12-14T06:24:51;8.40;99.90
32446;DHT22;18899;50.748;7.102;2023-12-14T06:27:17;8.30;99.90
32446;DHT22;18899;50.748;7.102;2023-12-14T06:29:42;8.30;99.90
32446;DHT22;18899;50.748;7.102;2023-12-14T06:32:08;8.30;99.90
32446;DHT22;18899;50.748;7.102;2023-12-14T06:34:33;8.30;99.90
32446;DHT22;18899;50.748;7.102;2023-12-14T06:36:59;8.40;99.90
32446;DHT22;18899;50.748;7.102;2023-12-14T06:39:25;8.30;99.90
32446;DHT22;18899;50.748;7.102;2023-12-14T06:41:52;8.30;99.90
32446;DHT22;18899;50.748;7.102;2023-12-14T06:44:18;8.30;99.90
32446;DHT22;18899;50.748;7.102;2023-12-14T06:46:44;8.30;99.90
32446;DHT22;18899;50.748;7.102;2023-12-14T06:49:09;8.30;99.90
32446;DHT22;18899;50.748;7.102;2023-12-14T06:51:35;8.40;99.90
32446;DHT22;18899;50.748;7.102;2023-12-14T06:54:01;8.50;99.90
32446;DHT22;18899;50.748;7.102;2023-12-14T06:56:27;8.50;99.90
32446;DHT22;18899;50.748;7.102;2023-12-14T06:58:52;8.40;99.90
32446;DHT22;18899;50.748;7.102;2023-12-14T07:01:18;8.50;99.90
32446;DHT22;18899;50.748;7.102;2023-12-14T07:03:44;8.40;99.90
32446;DHT22;18899;50.748;7.102;2023-12-14T07:06:16;8.40;99.90
32446;DHT22;18899;50.748;7.102;2023-12-14T07:08:42;8.40;99.90
32446;DHT22;18899;50.748;7.102;2023-12-14T07:11:09;8.40;99.90
32446;DHT22;18899;50.748;7.102;2023-12-14T07:13:34;8.30;99.90
32446;DHT22;18899;50.748;7.102;2023-12-14T07:16:08;8.30;99.90
32446;DHT22;18899;50.748;7.102;2023-12-14T07:18:39;8.40;99.90
32446;DHT22;18899;50.748;7.102;2023-12-14T07:21:05;8.40;99.90
32446;DHT22;18899;50.748;7.102;2023-12-14T07:23:31;8.30;99.90
32446;DHT22;18899;50.748;7.102;2023-12-14T07:25:57;8.30;99.90
32446;DHT22;18899;50.748;7.102;2023-12-14T07:28:22;8.30;99.90
32446;DHT22;18899;50.748;7.102;2023-12-14T07:30:48;8.30;99.90
32446;DHT22;18899;50.748;7.102;2023-12-14T07:33:15;8.30;99.90
32446;DHT22;18899;50.748;7.102;2023-12-14T07:35:40;8.40;99.90
32446;DHT22;18899;50.748;7.102;2023-12-14T07:38:06;8.30;99.90
32446;DHT22;18899;50.748;7.102;2023-12-14T07:40:31;8.30;99.90
32446;DHT22;18899;50.748;7.102;2023-12-14T07:42:57;8.30;99.90
32446;DHT22;18899;50.748;7.102;2023-12-14T07:45:22;8.20;99.90
32446;DHT22;18899;50.748;7.102;2023-12-14T07:47:48;8.20;99.90
32446;DHT22;18899;50.748;7.102;2023-12-14T07:50:13;8.30;99.90
32446;DHT22;18899;50.748;7.102;2023-12-14T07:52:39;8.30;99.90
32446;DHT22;18899;50.748;7.102;2023-12-14T07:55:06;8.30;99.90
32446;DHT22;18899;50.748;7.102;2023-12-14T07:57:32;8.20;99.90
32446;DHT22;18899;50.748;7.102;2023-12-14T07:59:57;8.20;99.90
32446;DHT22;18899;50.748;7.102;2023-12-14T08:02:23;8.20;99.90
32446;DHT22;18899;50.748;7.102;2023-12-14T08:04:49;8.20;99.90
32446;DHT22;18899;50.748;7.102;2023-12-14T08:07:14;8.10;99.90
32446;DHT22;18899;50.748;7.102;2023-12-14T08:09:40;8.20;99.90
32446;DHT22;18899;50.748;7.102;2023-12-14T08:12:05;8.20;99.90
32446;DHT22;18899;50.748;7.102;2023-12-14T08:14:34;8.10;99.90
32446;DHT22;18899;50.748;7.102;2023-12-14T08:17:01;8.00;99.90
32446;DHT22;18899;50.748;7.102;2023-12-14T08:19:27;8.10;99.90
32446;DHT22;18899;50.748;7.102;2023-12-14T08:21:53;8.00;99.90
32446;DHT22;18899;50.748;7.102;2023-12-14T08:24:18;8.10;99.90
32446;DHT22;18899;50.748;7.102;2023-12-14T08:26:44;8.10;99.90
32446;DHT22;18899;50.748;7.102;2023-12-14T08:29:09;8.10;99.90
32446;DHT22;18899;50.748;7.102;2023-12-14T08:31:35;8.10;99.90
32446;DHT22;18899;50.748;7.102;2023-12-14T08:34:00;7.90;99.90
32446;DHT22;18899;50.748;7.102;2023-12-14T08:36:26;7.90;99.90
32446;DHT22;18899;50.748;7.102;2023-12-14T08:38:51;8.00;99.90
32446;DHT22;18899;50.748;7.102;2023-12-14T08:41:17;8.00;99.90
32446;DHT22;18899;50.748;7.102;2023-12-14T08:43:43;8.00;99.90
32446;DHT22;18899;50.748;7.102;2023-12-14T08:46:08;7.90;99.90
32446;DHT22;18899;50.748;7.102;2023-12-14T08:48:35;7.80;99.90
32446;DHT22;18899;50.748;7.102;2023-12-14T08:51:01;7.80;99.90
32446;DHT22;18899;50.748;7.102;2023-12-14T08:53:26;7.70;99.90
32446;DHT22;18899;50.748;7.102;2023-12-14T08:55:53;7.80;99.90
32446;DHT22;18899;50.748;7.102;2023-12-14T08:58:18;7.80;99.90
32446;DHT22;18899;50.748;7.102;2023-12-14T09:00:44;7.90;99.90
32446;DHT22;18899;50.748;7.102;2023-12-14T09:03:09;8.00;99.90
32446;DHT22;18899;50.748;7.102;2023-12-14T09:05:35;8.00;99.90
32446;DHT22;18899;50.748;7.102;2023-12-14T09:08:00;8.00;99.90
32446;DHT22;18899;50.748;7.102;2023-12-14T09:10:26;8.00;99.90
32446;DHT22;18899;50.748;7.102;2023-12-14T09:12:51;8.10;99.90
32446;DHT22;18899;50.748;7.102;2023-12-14T09:15:17;8.10;99.90
32446;DHT22;18899;50.748;7.102;2023-12-14T09:17:42;8.20;99.90
32446;DHT22;18899;50.748;7.102;2023-12-14T09:20:09;8.30;99.90
32446;DHT22;18899;50.748;7.102;2023-12-14T09:22:34;8.20;99.90
32446;DHT22;18899;50.748;7.102;2023-12-14T09:25:00;8.10;99.90
32446;DHT22;18899;50.748;7.102;2023-12-14T09:27:26;8.20;99.90
32446;DHT22;18899;50.748;7.102;2023-12-14T09:29:52;8.20;99.90
32446;DHT22;18899;50.748;7.102;2023-12-14T09:32:17;8.20;99.90
32446;DHT22;18899;50.748;7.102;2023-12-14T09:34:43;8.10;99.90
32446;DHT22;18899;50.748;7.102;2023-12-14T09:37:09;8.20;99.90
32446;DHT22;18899;50.748;7.102;2023-12-14T09:39:34;8.30;99.90
32446;DHT22;18899;50.748;7.102;2023-12-14T09:42:05;8.20;99.90
32446;DHT22;18899;50.748;7.102;2023-12-14T09:44:32;8.20;99.90
32446;DHT22;18899;50.748;7.102;2023-12-14T09:47:01;8.20;99.90
32446;DHT22;18899;50.748;7.102;2023-12-14T09:49:29;8.20;99.90
32446;DHT22;18899;50.748;7.102;2023-12-14T09:51:58;8.20;99.90
32446;DHT22;18899;50.748;7.102;2023-12-14T09:54:27;8.20;99.90
32446;DHT22;18899;50.748;7.102;2023-12-14T09:56:53;8.20;99.90
32446;DHT22;18899;50.748;7.102;2023-12-14T09:59:20;8.30;99.90
32446;DHT22;18899;50.748;7.102;2023-12-14T10:01:45;8.20;99.90
32446;DHT22;18899;50.748;7.102;2023-12-14T10:04:12;8.10;99.90
32446;DHT22;18899;50.748;7.102;2023-12-14T10:06:39;8.00;99.90
32446;DHT22;18899;50.748;7.102;2023-12-14T10:09:06;8.00;99.90
32446;DHT22;18899;50.748;7.102;2023-12-14T10:11:43;7.90;99.90
32446;DHT22;18899;50.748;7.102;2023-12-14T10:14:23;7.80;99.90
32446;DHT22;18899;50.748;7.102;2023-12-14T10:16:52;7.60;99.90
32446;DHT22;18899;50.748;7.102;2023-12-14T10:19:19;7.60;99.90
32446;DHT22;18899;50.748;7.102;2023-12-14T10:21:46;7.60;99.90
32446;DHT22;18899;50.748;7.102;2023-12-14T10:24:12;7.70;99.90
32446;DHT22;18899;50.748;7.102;2023-12-14T10:26:38;7.80;99.90
32446;DHT22;18899;50.748;7.102;2023-12-14T10:29:04;7.80;99.90
32446;DHT22;18899;50.748;7.102;2023-12-14T10:31:32;7.80;99.90
32446;DHT22;18899;50.748;7.102;2023-12-14T10:34:05;7.90;99.90
32446;DHT22;18899;50.748;7.102;2023-12-14T10:36:31;7.80;99.90
32446;DHT22;18899;50.748;7.102;2023-12-14T10:38:59;7.80;99.90
32446;DHT22;18899;50.748;7.102;2023-12-14T10:41:24;7.90;99.90
32446;DHT22;18899;50.748;7.102;2023-12-14T10:43:53;7.90;99.90
32446;DHT22;18899;50.748;7.102;2023-12-14T10:46:19;7.90;99.90
32446;DHT22;18899;50.748;7.102;2023-12-14T10:48:47;7.80;99.90
32446;DHT22;18899;50.748;7.102;2023-12-14T10:51:14;7.90;99.90
32446;DHT22;18899;50.748;7.102;2023-12-14T10:53:40;7.90;99.90
32446;DHT22;18899;50.748;7.102;2023-12-14T10:56:10;7.80;99.90
32446;DHT22;18899;50.748;7.102;2023-12-14T10:58:48;7.90;99.90
32446;DHT22;18899;50.748;7.102;2023-12-14T11:01:17;8.00;99.90
32446;DHT22;18899;50.748;7.102;2023-12-14T11:03:44;8.00;99.90
32446;DHT22;18899;50.748;7.102;2023-12-14T11:08:54;8.20;99.90
32446;DHT22;18899;50.748;7.102;2023-12-14T11:11:21;8.10;99.90
32446;DHT22;18899;50.748;7.102;2023-12-14T11:13:52;8.00;99.90
32446;DHT22;18899;50.748;7.102;2023-12-14T11:16:21;7.90;99.90
32446;DHT22;18899;50.748;7.102;2023-12-14T11:18:47;7.90;99.90
32446;DHT22;18899;50.748;7.102;2023-12-14T11:21:19;7.80;99.90
32446;DHT22;18899;50.748;7.102;2023-12-14T11:23:47;7.80;99.90
32446;DHT22;18899;50.748;7.102;2023-12-14T11:26:20;7.80;99.90
32446;DHT22;18899;50.748;7.102;2023-12-14T11:28:48;7.80;99.90
32446;DHT22;18899;50.748;7.102;2023-12-14T11:31:14;7.80;99.90
32446;DHT22;18899;50.748;7.102;2023-12-14T11:33:40;7.80;99.90
32446;DHT22;18899;50.748;7.102;2023-12-14T11:36:06;7.80;99.90
32446;DHT22;18899;50.748;7.102;2023-12-14T11:38:32;7.90;99.90
32446;DHT22;18899;50.748;7.102;2023-12-14T11:41:01;7.90;99.90
32446;DHT22;18899;50.748;7.102;2023-12-14T11:43:27;7.90;99.90
32446;DHT22;18899;50.748;7.102;2023-12-14T11:45:53;7.90;99.90
32446;DHT22;18899;50.748;7.102;2023-12-14T11:48:20;8.00;99.90
32446;DHT22;18899;50.748;7.102;2023-12-14T11:50:46;7.90;99.90
32446;DHT22;18899;50.748;7.102;2023-12-14T11:53:12;8.00;99.90
32446;DHT22;18899;50.748;7.102;2023-12-14T11:55:40;8.00;99.90
32446;DHT22;18899;50.748;7.102;2023-12-14T11:58:07;8.10;99.90
32446;DHT22;18899;50.748;7.102;2023-12-14T12:00:34;8.20;99.90
32446;DHT22;18899;50.748;7.102;2023-12-14T12:03:10;8.30;99.90
32446;DHT22;18899;50.748;7.102;2023-12-14T12:05:47;8.30;99.90
32446;DHT22;18899;50.748;7.102;2023-12-14T12:08:15;8.30;99.90
32446;DHT22;18899;50.748;7.102;2023-12-14T12:10:42;8.30;99.90
32446;DHT22;18899;50.748;7.102;2023-12-14T12:13:12;8.20;99.90
32446;DHT22;18899;50.748;7.102;2023-12-14T12:15:38;8.30;99.90
32446;DHT22;18899;50.748;7.102;2023-12-14T12:18:06;8.20;99.90
32446;DHT22;18899;50.748;7.102;2023-12-14T12:20:32;8.10;99.90
32446;DHT22;18899;50.748;7.102;2023-12-14T12:22:58;8.00;99.90
32446;DHT22;18899;50.748;7.102;2023-12-14T12:25:23;8.20;99.90
32446;DHT22;18899;50.748;7.102;2023-12-14T12:27:49;8.20;99.90
32446;DHT22;18899;50.748;7.102;2023-12-14T12:30:14;8.10;99.90
32446;DHT22;18899;50.748;7.102;2023-12-14T12:32:41;8.10;99.90
32446;DHT22;18899;50.748;7.102;2023-12-14T12:35:07;8.10;99.90
32446;DHT22;18899;50.748;7.102;2023-12-14T12:37:33;8.10;99.90
32446;DHT22;18899;50.748;7.102;2023-12-14T12:39:59;8.00;99.90
32446;DHT22;18899;50.748;7.102;2023-12-14T12:42:24;8.00;99.90
32446;DHT22;18899;50.748;7.102;2023-12-14T12:44:51;7.90;99.90
32446;DHT22;18899;50.748;7.102;2023-12-14T12:47:16;7.90;99.90
32446;DHT22;18899;50.748;7.102;2023-12-14T12:49:42;7.90;99.90
32446;DHT22;18899;50.748;7.102;2023-12-14T12:52:07;7.90;99.90
32446;DHT22;18899;50.748;7.102;2023-12-14T12:54:34;7.90;99.90
32446;DHT22;18899;50.748;7.102;2023-12-14T12:57:00;7.90;99.90
32446;DHT22;18899;50.748;7.102;2023-12-14T12:59:25;8.00;99.90
32446;DHT22;18899;50.748;7.102;2023-12-14T13:01:51;8.00;99.90
32446;DHT22;18899;50.748;7.102;2023-12-14T13:04:23;8.00;99.90
32446;DHT22;18899;50.748;7.102;2023-12-14T13:06:49;8.10;99.90
32446;DHT22;18899;50.748;7.102;2023-12-14T13:09:16;8.10;99.90
32446;DHT22;18899;50.748;7.102;2023-12-14T13:11:42;8.10;99.90
32446;DHT22;18899;50.748;7.102;2023-12-14T13:14:09;8.10;99.90
32446;DHT22;18899;50.748;7.102;2023-12-14T13:16:35;8.10;99.90
32446;DHT22;18899;50.748;7.102;2023-12-14T13:19:01;8.10;99.90
32446;DHT22;18899;50.748;7.102;2023-12-14T13:21:28;8.00;99.90
32446;DHT22;18899;50.748;7.102;2023-12-14T13:23:54;8.20;99.90
32446;DHT22;18899;50.748;7.102;2023-12-14T13:26:19;8.20;99.90
32446;DHT22;18899;50.748;7.102;2023-12-14T13:28:45;8.10;99.90
32446;DHT22;18899;50.748;7.102;2023-12-14T13:31:10;8.10;99.90
32446;DHT22;18899;50.748;7.102;2023-12-14T13:33:36;8.20;99.90
32446;DHT22;18899;50.748;7.102;2023-12-14T13:36:01;8.20;99.90
32446;DHT22;18899;50.748;7.102;2023-12-14T13:38:27;8.20;99.90
32446;DHT22;18899;50.748;7.102;2023-12-14T13:40:52;8.20;99.90
32446;DHT22;18899;50.748;7.102;2023-12-14T13:43:18;8.10;99.90
32446;DHT22;18899;50.748;7.102;2023-12-14T13:45:43;8.10;99.90
32446;DHT22;18899;50.748;7.102;2023-12-14T13:48:09;8.20;99.90
32446;DHT22;18899;50.748;7.102;2023-12-14T13:50:35;8.20;99.90
32446;DHT22;18899;50.748;7.102;2023-12-14T13:53:01;8.20;99.90
32446;DHT22;18899;50.748;7.102;2023-12-14T13:55:27;8.20;99.90
32446;DHT22;18899;50.748;7.102;2023-12-14T13:57:53;8.30;99.90
32446;DHT22;18899;50.748;7.102;2023-12-14T14:00:19;8.30;99.90
32446;DHT22;18899;50.748;7.102;2023-12-14T14:02:45;8.30;99.90
32446;DHT22;18899;50.748;7.102;2023-12-14T14:05:10;8.20;99.90
32446;DHT22;18899;50.748;7.102;2023-12-14T14:07:36;8.20;99.90
32446;DHT22;18899;50.748;7.102;2023-12-14T14:10:01;8.20;99.90
32446;DHT22;18899;50.748;7.102;2023-12-14T14:12:27;8.20;99.90
32446;DHT22;18899;50.748;7.102;2023-12-14T14:14:52;8.10;99.90
32446;DHT22;18899;50.748;7.102;2023-12-14T14:17:18;8.20;99.90
32446;DHT22;18899;50.748;7.102;2023-12-14T14:19:43;8.00;99.90
32446;DHT22;18899;50.748;7.102;2023-12-14T14:22:09;8.10;99.90
32446;DHT22;18899;50.748;7.102;2023-12-14T14:24:34;8.00;99.90
32446;DHT22;18899;50.748;7.102;2023-12-14T14:27:01;8.00;99.90
32446;DHT22;18899;50.748;7.102;2023-12-14T14:29:26;8.00;99.90
32446;DHT22;18899;50.748;7.102;2023-12-14T14:31:52;8.00;99.90
32446;DHT22;18899;50.748;7.102;2023-12-14T14:34:17;7.90;99.90
32446;DHT22;18899;50.748;7.102;2023-12-14T14:36:43;7.90;99.90
32446;DHT22;18899;50.748;7.102;2023-12-14T14:39:10;7.90;99.90
32446;DHT22;18899;50.748;7.102;2023-12-14T14:41:35;7.90;99.90
32446;DHT22;18899;50.748;7.102;2023-12-14T14:44:01;7.80;99.90
32446;DHT22;18899;50.748;7.102;2023-12-14T14:46:27;7.80;99.90
32446;DHT22;18899;50.748;7.102;2023-12-14T14:48:52;7.90;99.90
32446;DHT22;18899;50.748;7.102;2023-12-14T14:51:18;7.80;99.90
32446;DHT22;18899;50.748;7.102;2023-12-14T14:53:43;7.70;99.90
32446;DHT22;18899;50.748;7.102;2023-12-14T14:56:09;7.60;99.90
32446;DHT22;18899;50.748;7.102;2023-12-14T14:58:35;7.60;99.90
32446;DHT22;18899;50.748;7.102;2023-12-14T15:01:00;7.60;99.90
32446;DHT22;18899;50.748;7.102;2023-12-14T15:03:26;7.60;99.90
32446;DHT22;18899;50.748;7.102;2023-12-14T15:05:51;7.60;99.90
32446;DHT22;18899;50.748;7.102;2023-12-14T15:08:17;7.60;99.90
32446;DHT22;18899;50.748;7.102;2023-12-14T15:10:42;7.60;99.90
32446;DHT22;18899;50.748;7.102;2023-12-14T15:13:08;7.60;99.90
32446;DHT22;18899;50.748;7.102;2023-12-14T15:15:33;7.60;99.90
32446;DHT22;18899;50.748;7.102;2023-12-14T15:17:59;7.50;99.90
32446;DHT22;18899;50.748;7.102;2023-12-14T15:20:25;7.60;99.90
32446;DHT22;18899;50.748;7.102;2023-12-14T15:22:50;7.70;99.90
32446;DHT22;18899;50.748;7.102;2023-12-14T15:25:16;7.70;99.90
32446;DHT22;18899;50.748;7.102;2023-12-14T15:27:43;7.70;99.90
32446;DHT22;18899;50.748;7.102;2023-12-14T15:30:08;7.70;99.90
32446;DHT22;18899;50.748;7.102;2023-12-14T15:32:35;7.60;99.90
32446;DHT22;18899;50.748;7.102;2023-12-14T15:35:01;7.60;99.90
32446;DHT22;18899;50.748;7.102;2023-12-14T15:37:27;7.50;99.90
32446;DHT22;18899;50.748;7.102;2023-12-14T15:39:52;7.60;99.90